Time;durP1;ratioP1;P1;durP2;ratioP2;P2;SDS_P1;SDS_P2;PMS_P1;PMS_P2;Temp;Humidity;BMP_temperature;BMP_pressure;BME280_temperature;BME280_humidity;BME280_pressure;Samples;Min_cycle;Max_cycle;Signal;HPM_P1;HPM_P2
2021/01/08 00:01:08;;;;;;;;;103.50;72.25;;;;;-2.81;94.06;99705.13;5013425;28;8930;-62
2021/01/08 00:03:35;;;;;;;;;91.00;63.00;;;;;-2.85;94.53;99710.38;5001841;28;8884;-62
2021/01/08 00:06:02;;;;;;;;;95.50;68.75;;;;;-2.62;94.63;99700.59;5016957;28;9557;-62
2021/01/08 00:08:29;;;;;;;;;94.00;65.00;;;;;-2.46;94.31;99696.94;5015908;28;8855;-62
2021/01/08 00:10:56;;;;;;;;;103.75;73.00;;;;;-2.50;94.39;99703.13;5020979;28;8864;-62
2021/01/08 00:13:23;;;;;;;;;99.00;73.00;;;;;-2.36;94.44;99702.13;5013454;28;8856;-62
2021/01/08 00:15:50;;;;;;;;;124.00;90.00;;;;;-2.29;94.02;99703.78;5019220;28;8894;-62
2021/01/08 00:18:17;;;;;;;;;114.00;84.75;;;;;-2.09;93.65;99703.63;5015113;28;8868;-63
2021/01/08 00:20:44;;;;;;;;;112.75;89.50;;;;;-2.41;93.85;99698.66;5025064;28;8970;-62
2021/01/08 00:23:12;;;;;;;;;116.00;84.25;;;;;-2.39;93.64;99675.88;5001813;28;8886;-62
2021/01/08 00:25:40;;;;;;;;;126.00;91.75;;;;;-2.41;94.12;99673.25;5018867;28;8829;-62
2021/01/08 00:28:07;;;;;;;;;93.25;69.75;;;;;-2.67;94.57;99676.09;5005026;28;8923;-62
2021/01/08 00:30:34;;;;;;;;;90.50;63.00;;;;;-3.10;94.92;99684.31;5004792;28;8857;-62
2021/01/08 00:33:01;;;;;;;;;88.25;62.50;;;;;-2.83;94.22;99677.97;5001830;28;8840;-62
2021/01/08 00:35:28;;;;;;;;;87.25;60.75;;;;;-2.95;93.97;99681.56;5022692;28;8891;-62
2021/01/08 00:37:55;;;;;;;;;84.50;64.25;;;;;-2.79;94.24;99684.97;5003241;28;8845;-62
2021/01/08 00:40:22;;;;;;;;;87.75;57.75;;;;;-2.73;94.05;99676.16;5005571;28;8841;-62
2021/01/08 00:42:49;;;;;;;;;97.50;69.50;;;;;-3.00;94.26;99670.22;5012297;28;8848;-62
2021/01/08 00:45:16;;;;;;;;;91.25;64.25;;;;;-2.88;94.17;99667.50;5013400;28;9365;-62
2021/01/08 00:47:43;;;;;;;;;93.00;64.25;;;;;-3.11;94.77;99675.56;5018453;28;8860;-62
2021/01/08 00:50:11;;;;;;;;;84.00;59.25;;;;;-3.20;94.77;99675.59;5022252;28;8846;-62
2021/01/08 00:52:38;;;;;;;;;85.75;63.00;;;;;-3.12;94.60;99683.44;5020031;28;8899;-62
2021/01/08 00:55:05;;;;;;;;;73.75;52.25;;;;;-3.26;94.28;99686.16;4997194;28;8898;-62
2021/01/08 00:57:33;;;;;;;;;75.50;55.75;;;;;-2.60;93.58;99683.06;4993197;28;8843;-62
2021/01/08 01:00:00;;;;;;;;;83.00;58.50;;;;;-2.78;92.42;99677.94;5018685;28;8907;-62
2021/01/08 01:02:26;;;;;;;;;85.50;60.50;;;;;-2.32;92.72;99688.06;5017939;28;8844;-62
2021/01/08 01:04:54;;;;;;;;;84.50;58.25;;;;;-2.81;93.35;99677.97;5013798;28;8865;-62
2021/01/08 01:07:21;;;;;;;;;84.50;63.00;;;;;-2.92;93.69;99678.06;5015863;28;8906;-62
2021/01/08 01:09:47;;;;;;;;;90.50;63.75;;;;;-2.81;94.01;99672.72;5018330;28;8871;-62
2021/01/08 01:12:14;;;;;;;;;87.25;64.25;;;;;-2.82;93.63;99670.97;5018566;28;8852;-62
2021/01/08 01:14:41;;;;;;;;;88.50;63.25;;;;;-2.75;93.71;99668.28;5016415;28;8948;-62
2021/01/08 01:17:09;;;;;;;;;74.50;59.00;;;;;-2.85;94.10;99671.84;5018044;28;8849;-62
2021/01/08 01:19:36;;;;;;;;;89.75;62.75;;;;;-2.61;93.87;99675.16;5018779;28;8872;-62
2021/01/08 01:22:03;;;;;;;;;99.25;67.25;;;;;-2.58;93.63;99676.03;5012173;28;8939;-62
2021/01/08 01:24:30;;;;;;;;;89.50;63.00;;;;;-2.68;93.60;99675.22;5014618;28;8837;-62
2021/01/08 01:26:58;;;;;;;;;93.25;66.50;;;;;-2.63;93.91;99672.56;5014942;28;8848;-62
2021/01/08 01:29:26;;;;;;;;;99.25;69.00;;;;;-2.67;94.25;99665.59;5014654;28;8852;-62
2021/01/08 01:31:53;;;;;;;;;97.25;68.25;;;;;-2.54;94.32;99661.09;5019809;28;8855;-62
2021/01/08 01:34:21;;;;;;;;;100.75;69.25;;;;;-2.69;94.05;99667.34;5017456;28;8866;-62
2021/01/08 01:36:48;;;;;;;;;107.00;76.00;;;;;-2.71;94.47;99669.13;5021859;28;8962;-62
2021/01/08 01:39:15;;;;;;;;;106.75;76.25;;;;;-2.50;94.03;99663.69;5022240;28;8840;-62
2021/01/08 01:41:42;;;;;;;;;98.75;72.00;;;;;-2.71;93.92;99667.38;5028726;28;9590;-62
2021/01/08 01:44:10;;;;;;;;;91.25;65.25;;;;;-2.70;94.13;99670.88;5005924;28;8869;-62
2021/01/08 01:46:37;;;;;;;;;90.50;69.50;;;;;-2.72;94.44;99670.00;5004790;28;8887;-62
2021/01/08 01:49:04;;;;;;;;;99.25;69.25;;;;;-2.63;94.37;99669.94;5001576;28;8848;-62
2021/01/08 01:51:32;;;;;;;;;94.25;64.25;;;;;-2.56;94.08;99671.63;4998259;28;8850;-62
2021/01/08 01:53:59;;;;;;;;;88.00;66.00;;;;;-2.54;94.31;99677.72;5006204;28;8851;-62
2021/01/08 01:56:27;;;;;;;;;102.50;71.50;;;;;-2.26;93.76;99683.63;5028500;28;8864;-62
2021/01/08 01:58:53;;;;;;;;;95.00;70.25;;;;;-2.34;93.49;99682.81;5003339;28;8879;-62
2021/01/08 02:01:20;;;;;;;;;97.00;71.00;;;;;-2.28;94.02;99684.53;5017139;28;8844;-61
2021/01/08 02:03:58;;;;;;;;;92.75;69.25;;;;;-2.11;94.08;99674.69;5020744;28;8863;-62
2021/01/08 02:06:37;;;;;;;;;96.25;68.75;;;;;-1.79;93.25;99673.44;5021797;28;8859;-62
2021/01/08 02:09:13;;;;;;;;;99.00;72.50;;;;;-1.86;92.98;99669.19;5002001;28;8848;-62
2021/01/08 02:11:48;;;;;;;;;99.50;72.00;;;;;-2.07;93.63;99668.50;5014951;28;8880;-62
2021/01/08 02:14:22;;;;;;;;;95.25;69.50;;;;;-2.21;94.16;99663.41;5025584;28;8872;-62
2021/01/08 02:16:52;;;;;;;;;100.50;72.00;;;;;-2.03;94.08;99664.97;5021306;28;9679;-62
2021/01/08 02:19:31;;;;;;;;;90.00;64.75;;;;;-1.83;93.80;99671.75;5008767;28;8865;-62
2021/01/08 02:22:21;;;;;;;;;92.00;64.50;;;;;-1.66;93.17;99671.56;4995108;28;8840;-62
2021/01/08 02:24:57;;;;;;;;;87.50;66.00;;;;;-1.79;93.44;99668.19;5005746;28;8892;-62
2021/01/08 02:27:25;;;;;;;;;86.75;65.00;;;;;-1.72;93.25;99664.59;5001954;28;8867;-62
2021/01/08 02:29:53;;;;;;;;;93.00;66.00;;;;;-1.89;93.84;99664.81;5004222;28;8842;-62
2021/01/08 02:32:20;;;;;;;;;99.75;70.00;;;;;-1.78;94.06;99673.44;5004513;28;8868;-62
2021/01/08 02:34:48;;;;;;;;;103.25;69.00;;;;;-1.69;93.37;99667.19;5007023;28;8875;-62
2021/01/08 02:37:15;;;;;;;;;100.00;71.00;;;;;-1.48;92.55;99662.56;5012888;28;8854;-62
2021/01/08 02:39:43;;;;;;;;;99.50;69.50;;;;;-1.63;92.26;99672.41;5006178;28;8960;-62
2021/01/08 02:42:14;;;;;;;;;96.00;69.25;;;;;-1.51;92.95;99678.41;5015344;28;8884;-62
2021/01/08 02:44:41;;;;;;;;;103.25;73.50;;;;;-1.50;92.87;99670.50;5018549;28;8884;-62
2021/01/08 02:47:09;;;;;;;;;99.00;72.00;;;;;-1.50;92.61;99664.31;5022187;28;8850;-62
2021/01/08 02:49:36;;;;;;;;;92.50;62.50;;;;;-1.35;92.99;99672.03;5003071;28;8959;-62
2021/01/08 02:52:06;;;;;;;;;93.25;63.50;;;;;-1.57;92.61;99671.44;5015784;28;8872;-62
2021/01/08 02:54:33;;;;;;;;;76.50;60.25;;;;;-1.52;92.89;99663.50;5012489;28;8877;-62
2021/01/08 02:57:05;;;;;;;;;91.25;59.50;;;;;-1.50;92.81;99661.69;5006702;28;8881;-62
2021/01/08 02:59:33;;;;;;;;;79.00;57.50;;;;;-1.43;92.87;99666.00;5015630;28;8865;-62
2021/01/08 03:02:00;;;;;;;;;79.75;58.50;;;;;-1.28;92.44;99668.44;4997677;28;8877;-62
2021/01/08 03:04:28;;;;;;;;;81.50;58.00;;;;;-1.23;92.22;99663.09;5021689;28;8860;-62
2021/01/08 03:06:56;;;;;;;;;85.00;60.75;;;;;-1.48;92.52;99652.03;5003617;28;8877;-62
2021/01/08 03:09:23;;;;;;;;;84.00;58.50;;;;;-1.68;93.59;99655.78;5020842;28;8856;-62
2021/01/08 03:12:00;;;;;;;;;78.50;58.00;;;;;-1.65;94.50;99663.66;5023627;28;8858;-62
2021/01/08 03:14:27;;;;;;;;;89.00;61.00;;;;;-1.65;93.93;99653.13;5002350;28;8864;-62
2021/01/08 03:16:54;;;;;;;;;90.50;63.75;;;;;-1.77;94.19;99653.25;5015618;28;8864;-62
2021/01/08 03:19:23;;;;;;;;;83.25;53.00;;;;;-1.74;94.09;99658.47;4998327;28;8852;-62
2021/01/08 03:21:49;;;;;;;;;60.25;47.50;;;;;-1.68;94.45;99660.19;5018917;28;8870;-62
2021/01/08 03:24:16;;;;;;;;;75.75;50.75;;;;;-1.50;94.43;99654.69;5020849;28;8861;-62
2021/01/08 03:26:43;;;;;;;;;474.67;398.33;;;;;-1.19;93.56;99657.75;5003385;28;8888;-62
2021/01/08 03:29:10;;;;;;;;;98.75;70.00;;;;;-1.24;93.39;99656.94;5019919;28;9557;-62
2021/01/08 03:31:37;;;;;;;;;93.25;68.75;;;;;-1.31;93.20;99665.84;5025967;28;8837;-63
2021/01/08 03:34:05;;;;;;;;;85.00;60.75;;;;;-1.39;93.45;99657.19;5019795;28;8863;-62
2021/01/08 03:36:31;;;;;;;;;85.75;60.25;;;;;-1.36;93.72;99641.34;5019226;28;8904;-63
2021/01/08 03:38:58;;;;;;;;;81.50;60.50;;;;;-1.26;93.04;99647.31;5012748;28;8953;-62
2021/01/08 03:41:25;;;;;;;;;85.75;63.75;;;;;-1.14;92.47;99641.88;5023370;28;8863;-63
2021/01/08 03:43:52;;;;;;;;;85.00;58.00;;;;;-1.12;92.02;99648.88;5012147;28;8967;-63
2021/01/08 03:46:19;;;;;;;;;76.75;53.75;;;;;-1.11;92.43;99653.28;5011256;28;9577;-63
2021/01/08 03:48:46;;;;;;;;;58.25;44.00;;;;;-1.23;92.27;99653.44;4994508;28;8856;-62
2021/01/08 03:51:13;;;;;;;;;73.00;55.75;;;;;-1.38;93.23;99645.75;5012306;28;8966;-63
2021/01/08 03:53:40;;;;;;;;;69.50;52.25;;;;;-1.63;93.50;99643.44;5012797;28;8844;-63
2021/01/08 03:56:08;;;;;;;;;80.75;61.00;;;;;-1.66;94.41;99646.13;5021017;28;8853;-63
2021/01/08 03:58:34;;;;;;;;;74.75;54.00;;;;;-1.63;94.41;99643.44;5015358;28;8865;-62
2021/01/08 04:01:01;;;;;;;;;78.00;56.25;;;;;-1.42;94.48;99641.41;5015214;28;9650;-62
2021/01/08 04:03:28;;;;;;;;;76.75;51.50;;;;;-1.14;93.81;99647.16;5011372;28;8839;-63
2021/01/08 04:05:55;;;;;;;;;73.50;51.50;;;;;-1.01;93.17;99647.84;5012555;28;8859;-63
2021/01/08 04:08:22;;;;;;;;;71.75;52.00;;;;;-1.14;92.62;99647.16;5012768;28;8949;-63
2021/01/08 04:10:49;;;;;;;;;77.50;56.50;;;;;-1.14;92.39;99648.00;5013915;28;8847;-62
2021/01/08 04:13:16;;;;;;;;;68.25;49.00;;;;;-1.08;93.12;99635.66;5012323;28;8841;-62
2021/01/08 04:15:43;;;;;;;;;67.50;48.00;;;;;-1.15;92.30;99641.03;5012048;28;9612;-62
2021/01/08 04:18:10;;;;;;;;;76.25;54.25;;;;;-1.33;92.95;99634.25;5011697;28;8891;-63
2021/01/08 04:20:37;;;;;;;;;81.50;60.50;;;;;-1.51;93.95;99636.28;5011628;28;8864;-63
2021/01/08 04:23:04;;;;;;;;;92.00;63.00;;;;;-1.45;94.09;99628.28;5011001;28;8863;-63
2021/01/08 04:25:31;;;;;;;;;79.00;57.50;;;;;-1.41;93.68;99628.22;5011981;28;8915;-63
2021/01/08 04:27:58;;;;;;;;;78.50;51.75;;;;;-1.30;93.34;99630.69;5006241;28;8866;-62
2021/01/08 04:30:25;;;;;;;;;72.50;51.75;;;;;-1.19;92.80;99628.78;5010895;28;9561;-62
2021/01/08 04:32:52;;;;;;;;;55.00;36.75;;;;;-1.03;92.89;99639.94;5012131;28;8878;-63
2021/01/08 04:35:19;;;;;;;;;60.50;47.00;;;;;-1.06;92.75;99633.88;5010450;28;8961;-62
2021/01/08 04:37:46;;;;;;;;;72.00;52.50;;;;;-1.38;92.88;99635.22;5011559;28;8859;-62
2021/01/08 04:40:13;;;;;;;;;68.50;48.75;;;;;-1.38;93.87;99633.44;5011548;28;8859;-62
2021/01/08 04:42:40;;;;;;;;;77.00;57.50;;;;;-1.66;94.18;99627.69;5005553;28;8846;-63
2021/01/08 04:45:11;;;;;;;;;99.25;70.50;;;;;-1.18;93.65;99622.63;5011507;28;8932;-62
2021/01/08 04:47:39;;;;;;;;;105.75;70.50;;;;;-1.25;93.23;99622.75;5011436;28;9832;-62
2021/01/08 04:50:07;;;;;;;;;95.00;70.50;;;;;-1.30;93.26;99625.44;5010300;28;8870;-62
2021/01/08 04:52:36;;;;;;;;;99.25;67.00;;;;;-1.31;93.06;99621.06;5010924;28;9638;-62
2021/01/08 04:55:03;;;;;;;;;84.75;56.50;;;;;-1.23;93.09;99619.19;5010342;28;8868;-62
2021/01/08 04:57:33;;;;;;;;;72.50;50.50;;;;;-1.27;93.40;99620.13;5011275;28;8867;-63
2021/01/08 05:00:00;;;;;;;;;73.25;54.00;;;;;-1.33;93.39;99625.47;5009734;28;8835;-62
2021/01/08 05:02:27;;;;;;;;;70.25;50.25;;;;;-1.41;94.05;99624.72;5011300;28;8843;-62
2021/01/08 05:04:54;;;;;;;;;73.50;53.00;;;;;-1.40;94.58;99623.81;5012566;28;8863;-62
2021/01/08 05:07:22;;;;;;;;;92.50;64.00;;;;;-1.40;94.47;99618.56;5015282;28;9922;-63
2021/01/08 05:09:49;;;;;;;;;72.25;56.00;;;;;-1.42;94.32;99605.44;5015506;28;8870;-63
2021/01/08 05:12:16;;;;;;;;;68.25;54.00;;;;;-1.46;94.78;99608.13;5015024;28;8877;-62
2021/01/08 05:14:44;;;;;;;;;75.00;57.50;;;;;-1.19;94.07;99602.44;5015567;28;8993;-63
2021/01/08 05:17:11;;;;;;;;;78.25;57.25;;;;;-1.21;94.18;99603.34;5030460;28;8867;-62
2021/01/08 05:19:38;;;;;;;;;97.50;65.00;;;;;-1.01;93.24;99596.00;5014138;28;8916;-62
2021/01/08 05:22:07;;;;;;;;;98.75;70.75;;;;;-1.16;93.03;99599.78;5014200;28;8940;-62
2021/01/08 05:24:35;;;;;;;;;108.75;72.75;;;;;-1.13;93.74;99597.09;5013619;28;8889;-62
2021/01/08 05:27:05;;;;;;;;;75.00;58.00;;;;;-1.26;93.84;99606.06;5014820;28;8878;-62
2021/01/08 05:29:32;;;;;;;;;73.25;51.75;;;;;-0.95;93.26;99600.31;5014920;28;8953;-62
2021/01/08 05:31:59;;;;;;;;;73.50;53.00;;;;;-1.03;93.09;99607.47;5014811;28;8874;-62
2021/01/08 05:34:29;;;;;;;;;74.25;48.75;;;;;-1.03;92.90;99602.19;5013603;28;8940;-62
2021/01/08 05:36:57;;;;;;;;;78.00;53.00;;;;;-1.25;93.53;99607.81;5013766;28;8901;-62
2021/01/08 05:39:27;;;;;;;;;83.00;63.00;;;;;-1.49;94.37;99602.91;5015225;28;8877;-62
2021/01/08 05:41:55;;;;;;;;;77.50;51.50;;;;;-1.47;94.83;99609.03;5009069;28;8844;-62
2021/01/08 05:44:22;;;;;;;;;75.25;48.75;;;;;-1.13;95.37;99612.91;4997630;28;8852;-62
2021/01/08 05:46:51;;;;;;;;;69.75;53.00;;;;;-0.88;93.64;99607.22;4997434;28;8870;-62
2021/01/08 05:49:20;;;;;;;;;89.75;59.00;;;;;-1.16;93.30;99607.69;4997784;28;8902;-63
2021/01/08 05:51:48;;;;;;;;;133.75;96.75;;;;;-1.38;94.70;99603.63;5013060;28;8868;-63
2021/01/08 05:54:15;;;;;;;;;96.00;68.00;;;;;-1.31;94.98;99605.28;4997064;28;8879;-62
2021/01/08 05:56:42;;;;;;;;;93.25;66.25;;;;;-1.05;94.68;99606.63;5014927;28;8856;-63
2021/01/08 05:59:09;;;;;;;;;105.25;75.25;;;;;-1.03;93.78;99602.19;4997691;28;8891;-63
2021/01/08 06:01:38;;;;;;;;;101.00;67.00;;;;;-1.20;93.64;99608.59;5014974;28;9722;-62
2021/01/08 06:04:07;;;;;;;;;101.75;66.00;;;;;-1.13;93.97;99591.81;5013434;28;8872;-63
2021/01/08 06:06:43;;;;;;;;;79.00;60.50;;;;;-1.20;93.98;99605.97;4997211;28;8847;-62
2021/01/08 06:09:15;;;;;;;;;96.75;67.00;;;;;-1.23;94.56;99606.03;5013548;28;8860;-63
2021/01/08 06:11:46;;;;;;;;;92.50;67.00;;;;;-1.10;94.20;99609.34;5014623;28;8848;-62
2021/01/08 06:14:16;;;;;;;;;106.25;75.25;;;;;-1.10;94.01;99606.72;5014185;28;8995;-62
2021/01/08 06:16:47;;;;;;;;;97.50;69.75;;;;;-1.10;93.78;99604.06;5013723;28;8888;-62
2021/01/08 06:19:16;;;;;;;;;90.50;62.75;;;;;-0.93;93.24;99596.75;4996799;28;8898;-62
2021/01/08 06:21:45;;;;;;;;;86.75;61.75;;;;;-1.05;93.57;99596.97;5013129;28;8859;-62
2021/01/08 06:24:25;;;;;;;;;86.75;60.50;;;;;-1.02;93.53;99596.06;5013856;28;8878;-63
2021/01/08 06:26:52;;;;;;;;;73.00;54.00;;;;;-0.91;93.45;99596.75;5014168;28;8974;-63
2021/01/08 06:29:26;;;;;;;;;79.75;58.75;;;;;-0.94;93.60;99599.44;4996533;28;9833;-62
2021/01/08 06:32:16;;;;;;;;;84.75;63.75;;;;;-0.92;93.93;99605.56;4996961;28;8856;-62
2021/01/08 06:34:46;;;;;;;;;83.00;60.00;;;;;-1.05;94.01;99609.25;4997122;28;8855;-62
2021/01/08 06:37:18;;;;;;;;;87.25;64.75;;;;;-1.08;94.18;99606.66;5013622;28;8872;-62
2021/01/08 06:39:47;;;;;;;;;93.50;67.00;;;;;-0.99;94.06;99599.50;5012743;28;8848;-62
2021/01/08 06:42:47;;;;;;;;;95.00;66.25;;;;;-0.95;93.54;99598.56;5013266;28;8880;-62
2021/01/08 06:45:17;;;;;;;;;82.50;54.00;;;;;-1.03;93.80;99608.34;5013638;28;9930;-63
2021/01/08 06:47:47;;;;;;;;;87.00;66.25;;;;;-1.12;94.11;99608.50;5012993;28;8882;-63
2021/01/08 06:50:20;;;;;;;;;88.50;61.25;;;;;-0.95;94.16;99610.84;5013125;28;8869;-62
2021/01/08 06:52:49;;;;;;;;;81.25;60.50;;;;;-0.88;93.35;99618.63;5013217;28;8859;-62
2021/01/08 06:55:22;;;;;;;;;104.75;69.25;;;;;-0.99;94.04;99620.56;5013506;28;8866;-62
2021/01/08 06:57:54;;;;;;;;;85.00;62.50;;;;;-0.83;93.45;99625.59;5012911;28;8866;-62
2021/01/08 07:00:29;;;;;;;;;81.25;54.00;;;;;-0.77;93.70;99636.91;5013169;28;8815;-62
2021/01/08 07:03:07;;;;;;;;;81.25;55.50;;;;;-0.89;93.73;99637.13;5012432;28;9545;-62
2021/01/08 07:05:34;;;;;;;;;92.00;63.75;;;;;-0.97;93.86;99644.28;5012475;28;8956;-62
2021/01/08 07:08:01;;;;;;;;;79.25;57.50;;;;;-0.79;93.30;99641.34;5013393;28;8948;-62
2021/01/08 07:10:31;;;;;;;;;68.00;55.25;;;;;-0.75;93.29;99645.66;5012180;28;8969;-63
2021/01/08 07:12:58;;;;;;;;;58.25;46.50;;;;;-0.91;93.09;99654.72;5012475;28;8855;-63
2021/01/08 07:15:28;;;;;;;;;72.00;53.00;;;;;-0.72;94.24;99650.88;5013449;28;8898;-63
2021/01/08 07:17:55;;;;;;;;;78.50;59.50;;;;;-0.75;95.01;99650.06;5011868;28;9617;-63
2021/01/08 07:20:22;;;;;;;;;90.75;65.50;;;;;-0.75;95.19;99644.81;5011681;28;9632;-62
2021/01/08 07:22:55;;;;;;;;;80.25;60.25;;;;;-1.19;95.62;99647.22;5012940;28;8851;-63
2021/01/08 07:25:25;;;;;;;;;76.25;55.50;;;;;-0.55;95.55;99641.84;5011573;28;8851;-62
2021/01/08 07:27:53;;;;;;;;;77.50;58.00;;;;;-0.80;94.97;99646.63;5011176;28;8871;-62
2021/01/08 07:30:22;;;;;;;;;86.25;61.25;;;;;-0.87;95.48;99645.84;5012087;28;8885;-63
2021/01/08 07:32:51;;;;;;;;;72.00;53.25;;;;;-0.92;94.93;99653.00;5011375;28;8879;-63
2021/01/08 07:35:30;;;;;;;;;81.75;60.75;;;;;-1.07;94.87;99653.22;5011706;28;8945;-62
2021/01/08 07:38:13;;;;;;;;;78.00;58.50;;;;;-0.86;94.70;99652.03;5012733;28;8866;-62
2021/01/08 07:40:41;;;;;;;;;81.25;59.00;;;;;-0.86;94.73;99652.88;5012373;28;8859;-62
2021/01/08 07:43:10;;;;;;;;;80.50;57.75;;;;;-0.92;94.44;99658.25;5009627;28;8863;-63
2021/01/08 07:45:57;;;;;;;;;96.50;69.50;;;;;-0.97;94.70;99665.38;5012816;28;8877;-63
2021/01/08 07:48:26;;;;;;;;;84.75;61.25;;;;;-0.95;94.74;99660.91;5011794;28;8870;-62
2021/01/08 07:51:01;;;;;;;;;111.50;82.00;;;;;-0.56;94.29;99663.81;5012263;28;8851;-63
2021/01/08 07:53:43;;;;;;;;;75.75;51.50;;;;;-0.56;92.71;99669.94;5012373;28;9898;-63
2021/01/08 07:56:21;;;;;;;;;73.50;56.00;;;;;-0.68;93.75;99673.69;5012553;28;8847;-63
2021/01/08 07:59:08;;;;;;;;;66.75;51.25;;;;;-0.58;93.13;99673.50;5011936;28;8866;-62
2021/01/08 08:01:37;;;;;;;;;74.00;48.00;;;;;-0.26;93.53;99680.91;5012622;28;8865;-63
2021/01/08 08:04:07;;;;;;;;;67.50;48.25;;;;;-0.39;93.05;99679.38;5012612;28;8957;-63
2021/01/08 08:06:37;;;;;;;;;70.00;51.00;;;;;-0.16;92.87;99679.81;5011249;28;8863;-62
2021/01/08 08:09:16;;;;;;;;;67.25;47.00;;;;;-0.10;91.77;99677.06;5012450;28;9933;-63
2021/01/08 08:11:43;;;;;;;;;65.25;45.25;;;;;-0.20;92.16;99680.78;5012283;28;8857;-63
2021/01/08 08:14:20;;;;;;;;;43.50;31.50;;;;;0.03;91.76;99675.09;5011612;28;8953;-62
2021/01/08 08:16:50;;;;;;;;;67.25;46.25;;;;;-0.20;92.06;99680.78;5012002;28;8863;-63
2021/01/08 08:19:18;;;;;;;;;72.25;51.00;;;;;-0.26;92.90;99684.41;5012101;28;8835;-62
2021/01/08 08:21:50;;;;;;;;;50.00;39.75;;;;;-0.28;93.51;99677.41;5012035;28;8871;-62
2021/01/08 08:24:18;;;;;;;;;78.25;59.25;;;;;-0.35;93.36;99679.28;5012333;28;8835;-62
2021/01/08 08:26:50;;;;;;;;;56.25;44.50;;;;;-0.50;93.84;99672.50;5011742;28;9665;-62
2021/01/08 08:29:18;;;;;;;;;69.00;46.50;;;;;-0.35;93.77;99676.63;5012108;28;8835;-62
2021/01/08 08:31:51;;;;;;;;;73.50;53.75;;;;;-0.36;93.81;99674.03;5012185;28;8835;-62
2021/01/08 08:34:32;;;;;;;;;70.50;49.00;;;;;-0.25;93.46;99672.94;5009726;28;8870;-62
2021/01/08 08:37:10;;;;;;;;;73.25;52.00;;;;;-0.11;93.40;99669.19;5011558;28;8831;-62
2021/01/08 08:39:38;;;;;;;;;63.25;48.75;;;;;-0.08;93.22;99670.00;4996157;28;8868;-62
2021/01/08 08:42:05;;;;;;;;;69.25;49.00;;;;;0.02;92.63;99672.47;5016167;28;8912;-62
2021/01/08 08:44:44;;;;;;;;;66.50;51.00;;;;;-0.07;91.76;99666.47;5014861;28;8839;-62
2021/01/08 08:47:11;;;;;;;;;73.50;57.00;;;;;-0.25;93.11;99658.88;5016000;28;8886;-62
2021/01/08 08:49:40;;;;;;;;;72.50;57.00;;;;;-0.33;93.35;99656.38;5014809;28;8867;-62
2021/01/08 08:52:07;;;;;;;;;67.00;51.50;;;;;-0.29;93.81;99655.44;5015946;28;8894;-62
2021/01/08 08:54:38;;;;;;;;;83.50;54.50;;;;;-0.16;94.19;99650.78;5015645;28;8894;-63
2021/01/08 08:57:06;;;;;;;;;83.75;58.75;;;;;-0.16;94.60;99656.06;5015611;28;8859;-63
2021/01/08 08:59:43;;;;;;;;;115.25;86.75;;;;;-0.12;93.92;99664.81;5015505;28;9585;-62
2021/01/08 09:02:26;;;;;;;;;96.25;67.25;;;;;-0.03;93.50;99661.97;4998624;28;8836;-62
2021/01/08 09:04:59;;;;;;;;;95.00;71.50;;;;;-0.11;93.92;99664.75;4997845;28;9760;-63
2021/01/08 09:07:50;;;;;;;;;97.50;69.25;;;;;-0.14;93.12;99656.03;5015800;28;8831;-62
2021/01/08 09:10:30;;;;;;;;;104.25;74.00;;;;;0.09;92.42;99661.75;5015205;28;8859;-62
2021/01/08 09:13:18;;;;;;;;;305.75;236.25;;;;;-0.19;92.25;99663.16;5014568;28;8827;-62
2021/01/08 09:15:57;;;;;;;;;86.00;60.25;;;;;0.13;91.69;99671.38;5014402;28;8859;-63
2021/01/08 09:18:48;;;;;;;;;110.00;80.75;;;;;0.18;91.98;99669.47;5013994;28;8917;-63
2021/01/08 09:21:28;;;;;;;;;70.75;55.25;;;;;0.20;90.52;99672.09;5014569;28;8881;-63
2021/01/08 09:24:00;;;;;;;;;75.75;56.00;;;;;0.26;90.05;99679.91;5014288;28;8850;-63
2021/01/08 09:26:29;;;;;;;;;86.50;61.00;;;;;0.21;91.07;99682.66;5014706;28;8865;-63
2021/01/08 09:28:57;;;;;;;;;92.00;65.00;;;;;0.20;91.24;99678.25;5013918;28;8901;-63
2021/01/08 09:31:45;;;;;;;;;81.25;59.50;;;;;0.35;90.55;99677.09;5015308;28;8843;-63
2021/01/08 09:34:18;;;;;;;;;77.25;53.00;;;;;0.34;90.59;99683.28;5030253;28;8839;-63
2021/01/08 09:36:48;;;;;;;;;68.75;50.50;;;;;0.22;91.22;99684.38;5014659;28;8905;-63
2021/01/08 09:39:15;;;;;;;;;76.00;56.00;;;;;0.35;90.37;99698.22;5013670;28;8874;-62
2021/01/08 09:41:44;;;;;;;;;86.00;61.75;;;;;0.39;90.18;99696.38;5011243;28;8910;-63
2021/01/08 09:44:13;;;;;;;;;167.00;139.75;;;;;0.34;91.14;99688.56;5015021;28;8851;-62
2021/01/08 09:47:05;;;;;;;;;358.25;263.00;;;;;0.31;90.86;99693.00;5014465;28;9607;-63
2021/01/08 09:49:52;;;;;;;;;114.00;74.00;;;;;0.42;91.25;99693.66;5015058;28;8859;-62
2021/01/08 09:52:28;;;;;;;;;88.25;63.25;;;;;0.02;92.64;99688.28;4998149;28;8858;-62
2021/01/08 09:55:30;;;;;;;;;73.50;54.50;;;;;0.04;92.99;99689.13;5014238;28;8969;-62
2021/01/08 09:58:01;;;;;;;;;79.75;58.25;;;;;0.06;92.60;99687.34;5014269;28;8989;-62
2021/01/08 10:00:35;;;;;;;;;84.25;61.50;;;;;0.13;91.99;99678.41;4996839;28;8882;-63
2021/01/08 10:03:05;;;;;;;;;75.50;53.00;;;;;-0.01;92.51;99678.66;5014116;28;8851;-62
2021/01/08 10:05:35;;;;;;;;;76.75;57.00;;;;;0.10;92.28;99675.81;5014309;28;8867;-62
2021/01/08 10:08:05;;;;;;;;;77.00;60.25;;;;;0.12;92.17;99677.53;5014211;28;8859;-62
2021/01/08 10:10:38;;;;;;;;;75.50;58.00;;;;;0.24;91.89;99673.78;5014135;28;8864;-62
2021/01/08 10:13:13;;;;;;;;;78.25;57.00;;;;;-0.01;92.82;99670.75;4997011;28;8909;-63
2021/01/08 10:15:47;;;;;;;;;69.25;50.75;;;;;0.29;92.54;99671.94;5014269;28;8852;-62
2021/01/08 10:18:20;;;;;;;;;67.50;53.50;;;;;0.22;91.63;99671.16;5012966;28;8888;-62
2021/01/08 10:20:48;;;;;;;;;73.25;58.00;;;;;0.28;91.65;99666.69;5014116;28;8856;-62
2021/01/08 10:23:19;;;;;;;;;62.25;45.00;;;;;0.36;91.03;99667.38;4996868;28;8856;-62
2021/01/08 10:25:47;;;;;;;;;61.25;49.00;;;;;0.36;90.15;99670.03;4997286;28;8874;-62
2021/01/08 10:28:24;;;;;;;;;73.00;53.00;;;;;0.36;90.42;99665.59;5014268;28;9070;-62
2021/01/08 10:30:54;;;;;;;;;68.75;49.50;;;;;0.33;91.63;99663.03;5013724;28;8983;-62
2021/01/08 10:33:24;;;;;;;;;115.25;84.75;;;;;0.41;91.32;99660.25;5014182;28;8871;-63
2021/01/08 10:35:54;;;;;;;;;141.00;116.75;;;;;0.21;91.13;99650.97;4996823;28;8848;-63
2021/01/08 10:38:22;;;;;;;;;105.25;73.50;;;;;0.28;91.41;99640.28;4996602;28;8860;-63
2021/01/08 10:40:50;;;;;;;;;79.75;58.50;;;;;0.31;91.93;99637.56;5012778;28;8864;-63
2021/01/08 10:43:17;;;;;;;;;105.50;77.00;;;;;0.19;92.06;99630.78;5012498;28;8847;-63
2021/01/08 10:45:45;;;;;;;;;114.00;78.00;;;;;0.49;91.17;99631.03;5014017;28;8894;-63
2021/01/08 10:48:14;;;;;;;;;86.25;59.25;;;;;0.34;91.46;99626.94;5012777;28;8843;-63
2021/01/08 10:50:42;;;;;;;;;80.25;57.75;;;;;0.35;90.91;99623.41;5012916;28;8941;-64
2021/01/08 10:53:09;;;;;;;;;88.25;63.00;;;;;0.44;90.61;99620.56;5014033;28;8865;-64
2021/01/08 10:55:36;;;;;;;;;86.00;60.00;;;;;0.49;90.34;99623.97;5013491;28;8888;-63
2021/01/08 10:58:03;;;;;;;;;240.25;166.00;;;;;0.32;91.09;99619.06;5013652;28;8969;-63
2021/01/08 11:00:30;;;;;;;;;114.75;74.00;;;;;0.46;91.34;99616.13;5012389;28;8953;-64
2021/01/08 11:02:58;;;;;;;;;92.25;66.00;;;;;0.50;90.21;99615.16;5011977;28;8839;-63
2021/01/08 11:05:25;;;;;;;;;95.50;68.75;;;;;0.56;90.62;99620.31;5013068;28;8851;-63
2021/01/08 11:07:52;;;;;;;;;121.50;92.50;;;;;0.47;90.63;99620.47;5013104;28;8912;-64
2021/01/08 11:10:19;;;;;;;;;98.00;72.75;;;;;0.61;90.89;99626.34;5028861;28;8854;-63
2021/01/08 11:12:46;;;;;;;;;91.00;66.75;;;;;0.65;90.35;99619.22;5012866;28;8897;-63
2021/01/08 11:15:14;;;;;;;;;99.25;71.00;;;;;0.48;90.95;99627.53;5013245;28;8831;-63
2021/01/08 11:17:40;;;;;;;;;268.00;186.50;;;;;0.48;91.43;99627.53;5012844;28;8863;-63
2021/01/08 11:20:12;;;;;;;;;88.00;60.50;;;;;0.59;91.15;99629.94;5012995;28;8908;-63
2021/01/08 11:22:39;;;;;;;;;104.75;74.75;;;;;0.48;90.29;99643.38;4996767;28;8854;-63
2021/01/08 11:25:07;;;;;;;;;106.25;75.75;;;;;0.52;91.15;99629.19;5013173;28;8867;-63
2021/01/08 11:27:36;;;;;;;;;113.50;84.50;;;;;0.60;90.26;99627.22;5013513;28;8948;-63
2021/01/08 11:30:05;;;;;;;;;110.25;78.00;;;;;0.57;90.20;99627.31;5012860;28;8889;-63
2021/01/08 11:32:32;;;;;;;;;82.25;62.50;;;;;0.75;89.95;99635.75;5012116;28;8824;-63
2021/01/08 11:35:00;;;;;;;;;90.00;63.00;;;;;0.69;89.97;99633.25;5012860;28;8953;-63
2021/01/08 11:37:34;;;;;;;;;78.50;54.25;;;;;0.78;88.94;99625.09;5012687;28;8863;-63